createdAt,value
2018-07-04T00:00:39.953Z,3.23
2018-07-04T00:03:19.914Z,4.93
2018-07-04T00:05:59.731Z,2.87
2018-07-04T00:08:39.696Z,3.10
2018-07-04T00:11:19.663Z,2.90
2018-07-04T00:13:59.752Z,2.63
2018-07-04T00:16:39.599Z,3.47
2018-07-04T00:19:19.567Z,3.30
2018-07-04T00:21:53.535Z,4.57
2018-07-04T00:24:33.412Z,3.47
2018-07-04T00:27:13.454Z,4.10
2018-07-04T00:29:53.427Z,3.00
2018-07-04T00:32:27.372Z,3.60
2018-07-04T00:35:07.116Z,3.27
2018-07-04T00:37:46.972Z,3.10
2018-07-04T00:40:26.924Z,3.63
2018-07-04T00:43:06.882Z,3.07
2018-07-04T00:45:46.734Z,2.97
2018-07-04T00:48:26.817Z,3.47
2018-07-04T00:51:06.733Z,3.30
2018-07-04T00:53:46.815Z,3.07
2018-07-04T00:56:26.723Z,4.07
2018-07-04T00:59:06.514Z,3.40
2018-07-04T01:01:46.527Z,5.00
2018-07-04T01:04:26.455Z,3.20
2018-07-04T01:07:06.067Z,3.57
2018-07-04T01:09:39.954Z,3.67
2018-07-04T01:12:19.742Z,3.37
2018-07-04T01:14:59.703Z,3.00
2018-07-04T01:17:39.529Z,3.63
2018-07-04T01:20:19.683Z,2.97
2018-07-04T01:22:59.568Z,4.63
2018-07-04T01:25:39.567Z,4.87
2018-07-04T01:28:13.511Z,3.67
2018-07-04T01:30:53.366Z,3.57
2018-07-04T01:33:34.050Z,4.43
2018-07-04T01:36:13.883Z,3.83
2018-07-04T01:38:53.819Z,3.53
2018-07-04T01:41:33.852Z,3.63
2018-07-04T01:44:07.708Z,3.70
2018-07-04T01:46:47.492Z,4.13
2018-07-04T01:49:21.434Z,3.60
2018-07-04T01:52:01.318Z,5.40
2018-07-04T01:54:41.087Z,3.80
2018-07-04T01:57:21.145Z,4.23
2018-07-04T02:00:01.072Z,3.57
2018-07-04T02:02:41.040Z,4.47
2018-07-04T02:05:20.975Z,3.60
2018-07-04T02:08:00.973Z,4.40
2018-07-04T02:10:40.736Z,4.30
2018-07-04T02:13:20.756Z,4.17
2018-07-04T02:15:54.754Z,3.80
2018-07-04T02:18:28.442Z,3.87
2018-07-04T02:21:08.250Z,4.17
2018-07-04T02:23:48.263Z,3.77
2018-07-04T02:26:28.295Z,4.00
2018-07-04T02:29:08.184Z,3.37
2018-07-04T02:31:48.203Z,4.50
2018-07-04T02:34:24.918Z,8.13
2018-07-04T02:37:05.756Z,4.93
2018-07-04T02:39:39.509Z,6.43
2018-07-04T02:42:19.354Z,3.57
2018-07-04T02:44:59.284Z,4.07
2018-07-04T02:47:39.408Z,4.00
2018-07-04T02:50:13.453Z,3.87
2018-07-04T02:52:53.319Z,4.03
2018-07-04T02:55:33.257Z,4.23
2018-07-04T02:58:13.058Z,3.87
2018-07-04T03:00:52.965Z,3.73
2018-07-04T03:03:33.056Z,4.30
2018-07-04T03:06:12.960Z,4.43
2018-07-04T03:08:52.914Z,4.37
2018-07-04T03:11:32.856Z,3.83
2018-07-04T03:14:12.715Z,4.60
2018-07-04T03:16:52.586Z,4.87
2018-07-04T03:19:32.596Z,4.30
2018-07-04T03:22:12.447Z,4.17
2018-07-04T03:24:52.385Z,5.70
2018-07-04T03:27:32.399Z,4.87
2018-07-04T03:30:12.259Z,6.93
2018-07-04T03:32:52.317Z,3.90
2018-07-04T03:35:32.383Z,5.07
2018-07-04T03:38:12.354Z,6.80
2018-07-04T03:40:52.354Z,5.10
2018-07-04T03:43:26.326Z,4.13
2018-07-04T03:46:06.075Z,5.50
2018-07-04T03:48:45.885Z,6.67
2018-07-04T03:51:25.940Z,3.40
2018-07-04T03:54:08.432Z,5.23
2018-07-04T03:56:48.212Z,5.23
2018-07-04T03:59:28.123Z,4.40
2018-07-04T04:02:08.109Z,5.13
2018-07-04T04:04:47.859Z,5.50
2018-07-04T04:07:27.784Z,5.33
2018-07-04T04:10:07.566Z,4.37
2018-07-04T04:12:47.453Z,5.33
2018-07-04T04:15:21.130Z,4.10
2018-07-04T04:18:01.014Z,4.33
2018-07-04T04:20:34.951Z,8.60
2018-07-04T04:23:14.929Z,5.37
2018-07-04T04:25:54.802Z,7.77
2018-07-04T04:28:34.706Z,5.57
2018-07-04T04:31:16.558Z,7.33
2018-07-04T04:33:57.673Z,6.80
2018-07-04T04:36:37.828Z,4.60
2018-07-04T04:39:18.107Z,5.43
2018-07-04T04:41:59.059Z,9.87
2018-07-04T04:44:39.003Z,5.13
2018-07-04T04:47:19.780Z,7.47
2018-07-04T04:50:00.067Z,4.53
2018-07-04T04:52:39.886Z,4.10
2018-07-04T04:55:19.925Z,4.00
2018-07-04T04:57:59.667Z,4.03
2018-07-04T05:00:39.566Z,4.07
2018-07-04T05:03:19.786Z,3.93
2018-07-04T05:05:59.646Z,4.47
2018-07-04T05:08:39.475Z,7.73
2018-07-04T05:11:13.396Z,7.40
2018-07-04T05:13:53.231Z,9.53
2018-07-04T05:16:33.046Z,5.07
2018-07-04T05:19:06.741Z,6.07
2018-07-04T05:21:46.647Z,4.70
2018-07-04T05:24:26.583Z,6.07
2018-07-04T05:27:06.571Z,7.03
2018-07-04T05:29:46.439Z,7.57
2018-07-04T05:32:20.653Z,5.73
2018-07-04T05:34:54.534Z,6.33
2018-07-04T05:37:34.417Z,6.17
2018-07-04T05:40:14.468Z,6.87
2018-07-04T05:42:48.656Z,6.17
2018-07-04T05:45:28.692Z,6.07
2018-07-04T05:48:08.629Z,5.73
2018-07-04T05:50:48.583Z,4.03
2018-07-04T05:53:28.517Z,4.30
2018-07-04T05:56:09.069Z,7.93
2018-07-04T05:58:48.856Z,4.20
2018-07-04T06:01:28.856Z,5.57
2018-07-04T06:04:08.797Z,3.43
2018-07-04T06:06:48.669Z,2.17
2018-07-04T06:09:28.583Z,2.20
2018-07-04T06:12:02.490Z,2.63
2018-07-04T06:14:36.290Z,3.20
2018-07-04T06:17:16.175Z,2.67
2018-07-04T06:19:56.149Z,2.27
2018-07-04T06:22:36.226Z,2.77
2018-07-04T06:25:16.128Z,2.30
2018-07-04T06:27:56.240Z,2.13
2018-07-04T06:30:36.076Z,3.17
2018-07-04T06:33:15.871Z,1.70
2018-07-04T06:35:55.844Z,1.50
2018-07-04T06:38:23.328Z,3.13
2018-07-04T06:40:50.798Z,3.37
2018-07-04T06:43:18.311Z,4.37
2018-07-04T06:45:45.786Z,1.53
2018-07-04T06:48:13.270Z,2.03
2018-07-04T06:50:41.020Z,1.70
2018-07-04T06:53:08.553Z,3.63
2018-07-04T06:55:36.969Z,2.57
2018-07-04T06:58:04.756Z,2.30
2018-07-04T07:00:32.283Z,3.22
2018-07-04T07:03:12.261Z,2.43
2018-07-04T07:05:52.186Z,1.93
2018-07-04T07:08:32.239Z,2.43
2018-07-04T07:11:12.308Z,6.20
2018-07-04T07:13:52.114Z,3.55
2018-07-04T07:16:32.164Z,1.75
2018-07-04T07:19:12.144Z,2.62
2018-07-04T07:21:52.006Z,2.05
2018-07-04T07:24:32.043Z,4.17
2018-07-04T07:27:12.047Z,2.02
2018-07-04T07:29:51.838Z,3.42
2018-07-04T07:32:31.752Z,2.37
2018-07-04T07:35:11.723Z,1.70
2018-07-04T07:37:51.651Z,2.50
2018-07-04T07:40:31.471Z,4.45
2018-07-04T07:43:11.347Z,4.37
2018-07-04T07:45:51.327Z,4.80
2018-07-04T07:48:31.172Z,2.17
2018-07-04T07:51:11.035Z,1.70
2018-07-04T07:53:44.957Z,3.35
2018-07-04T07:56:24.836Z,5.25
2018-07-04T07:59:04.745Z,4.10
2018-07-04T08:01:38.646Z,4.03
2018-07-04T08:04:18.995Z,2.87
2018-07-04T08:06:59.060Z,3.67
2018-07-04T08:09:38.958Z,5.60
2018-07-04T08:12:12.834Z,1.60
2018-07-04T08:14:46.818Z,2.62
2018-07-04T08:17:26.723Z,1.98
2018-07-04T08:20:06.515Z,1.85
2018-07-04T08:22:46.393Z,2.00
2018-07-04T08:25:26.367Z,1.32
2018-07-04T08:28:06.375Z,4.80
2018-07-04T08:30:46.183Z,2.77
2018-07-04T08:33:26.185Z,2.00
2018-07-04T08:36:06.007Z,1.60
2018-07-04T08:38:45.838Z,2.47
2018-07-04T08:41:25.710Z,3.02
2018-07-04T08:43:59.625Z,1.60
2018-07-04T08:46:33.556Z,1.90
2018-07-04T08:49:13.440Z,1.35
2018-07-04T08:51:53.172Z,2.37
2018-07-04T08:54:32.970Z,2.67
2018-07-04T08:57:07.251Z,5.35
2018-07-04T08:59:47.431Z,2.33
2018-07-04T09:02:27.295Z,1.87
2018-07-04T09:05:07.163Z,1.70
2018-07-04T09:07:46.964Z,5.22
2018-07-04T09:10:26.838Z,2.60
2018-07-04T09:13:06.677Z,2.67
2018-07-04T09:15:41.176Z,1.20
2018-07-04T09:18:20.883Z,1.57
2018-07-04T09:21:00.731Z,1.65
2018-07-04T09:23:41.542Z,2.10
2018-07-04T09:26:21.419Z,1.60
2018-07-04T09:29:01.279Z,1.92
2018-07-04T09:31:41.320Z,2.37
2018-07-04T09:34:21.144Z,2.92
2018-07-04T09:37:01.264Z,5.28
2018-07-04T09:39:42.397Z,2.70
2018-07-04T09:42:22.174Z,2.67
2018-07-04T09:45:02.177Z,1.90
2018-07-04T09:47:36.029Z,2.45
2018-07-04T09:50:15.964Z,1.32
2018-07-04T09:52:55.880Z,1.42
2018-07-04T09:55:29.686Z,1.55
2018-07-04T09:58:03.506Z,1.62
2018-07-04T10:00:48.684Z,1.55
2018-07-04T10:03:28.739Z,1.62
2018-07-04T10:06:08.472Z,3.87
2018-07-04T10:08:48.387Z,1.42
2018-07-04T10:11:28.322Z,1.75
2018-07-04T10:14:08.379Z,1.50
2018-07-04T10:16:48.100Z,1.52
2018-07-04T10:19:28.018Z,2.33
2018-07-04T10:22:08.056Z,1.92
2018-07-04T10:24:42.093Z,1.70
2018-07-04T10:27:21.887Z,2.20
2018-07-04T10:30:01.760Z,2.60
2018-07-04T10:32:35.784Z,1.50
2018-07-04T10:35:09.609Z,3.47
2018-07-04T10:37:49.720Z,1.72
2018-07-04T10:40:29.615Z,1.95
2018-07-04T10:43:09.491Z,1.60
2018-07-04T10:45:49.263Z,1.60
2018-07-04T10:48:29.077Z,2.08
2018-07-04T10:51:09.087Z,6.15
2018-07-04T10:53:43.435Z,1.57
2018-07-04T10:56:23.404Z,1.62
2018-07-04T10:59:03.340Z,1.40
2018-07-04T11:01:43.060Z,1.40
2018-07-04T11:04:22.848Z,4.75
2018-07-04T11:07:02.903Z,2.72
2018-07-04T11:09:42.825Z,1.30
2018-07-04T11:12:22.579Z,2.80
2018-07-04T11:15:02.370Z,1.45
2018-07-04T11:17:43.344Z,1.82
2018-07-04T11:20:17.265Z,1.02
2018-07-04T11:22:57.235Z,2.55
2018-07-04T11:25:36.992Z,1.10
2018-07-04T11:28:16.790Z,1.50
2018-07-04T11:30:56.759Z,2.55
2018-07-04T11:33:36.696Z,2.27
2018-07-04T11:36:11.318Z,1.10
2018-07-04T11:38:51.283Z,1.92
2018-07-04T11:41:31.336Z,1.80
2018-07-04T11:44:11.160Z,1.02
2018-07-04T11:46:38.674Z,1.57
2018-07-04T11:49:06.232Z,2.15
2018-07-04T11:51:33.739Z,4.70
2018-07-04T11:54:01.285Z,2.98
2018-07-04T11:56:28.894Z,1.87
2018-07-04T11:58:56.470Z,1.95
2018-07-04T12:01:23.974Z,1.30
2018-07-04T12:04:03.651Z,1.62
2018-07-04T12:06:43.624Z,1.27
2018-07-04T12:09:12.255Z,1.82
2018-07-04T12:11:40.237Z,1.55
2018-07-04T12:14:07.941Z,2.37
2018-07-04T12:16:35.439Z,1.40
2018-07-04T12:19:02.904Z,1.85
2018-07-04T12:21:30.428Z,1.50
2018-07-04T12:23:57.920Z,1.17
2018-07-04T12:26:25.664Z,3.95
2018-07-04T12:28:53.182Z,1.35
2018-07-04T12:31:20.668Z,1.52
2018-07-04T12:33:48.420Z,1.40
2018-07-04T12:36:16.019Z,4.62
2018-07-04T12:38:43.473Z,2.15
2018-07-04T12:41:12.033Z,1.32
2018-07-04T12:43:39.593Z,1.32
2018-07-04T12:46:07.379Z,2.15
2018-07-04T12:48:34.940Z,1.95
2018-07-04T12:51:02.468Z,2.77
2018-07-04T12:53:29.903Z,1.87
2018-07-04T12:56:09.843Z,2.27
2018-07-04T12:58:49.846Z,1.75
2018-07-04T13:01:29.784Z,2.40
2018-07-04T13:04:09.730Z,3.75
2018-07-04T13:06:49.666Z,2.00
2018-07-04T13:09:29.502Z,3.25
2018-07-04T13:12:09.539Z,1.98
2018-07-04T13:14:49.351Z,2.15
2018-07-04T13:17:29.215Z,1.50
2018-07-04T13:20:03.174Z,1.87
2018-07-04T13:22:43.452Z,1.67
2018-07-04T13:25:23.366Z,3.00
2018-07-04T13:28:03.315Z,1.62
2018-07-04T13:30:44.191Z,1.30
2018-07-04T13:33:24.087Z,1.92
2018-07-04T13:35:58.040Z,2.60
2018-07-04T13:38:37.945Z,1.67
2018-07-04T13:41:12.430Z,1.55
2018-07-04T13:43:52.179Z,1.20
2018-07-04T13:46:32.127Z,1.75
2018-07-04T13:49:12.483Z,2.05
2018-07-04T13:51:52.228Z,1.60
2018-07-04T13:54:32.178Z,1.45
2018-07-04T13:57:13.107Z,1.30
2018-07-04T13:59:52.992Z,1.85
2018-07-04T14:02:32.873Z,1.42
2018-07-04T14:05:13.527Z,1.40
2018-07-04T14:07:53.360Z,6.10
2018-07-04T14:10:33.360Z,1.72
2018-07-04T14:13:13.953Z,1.37
2018-07-04T14:15:53.871Z,3.42
2018-07-04T14:18:33.652Z,1.55
2018-07-04T14:21:13.967Z,4.05
2018-07-04T14:23:53.844Z,4.00
2018-07-04T14:26:33.836Z,2.98
2018-07-04T14:29:14.061Z,1.90
2018-07-04T14:31:54.138Z,1.57
2018-07-04T14:34:34.124Z,1.92
2018-07-04T14:37:14.731Z,1.75
2018-07-04T14:39:54.528Z,2.50
2018-07-04T14:42:34.499Z,8.05
2018-07-04T14:45:08.335Z,1.95
2018-07-04T14:47:43.054Z,5.90
2018-07-04T14:50:22.964Z,1.50
2018-07-04T14:53:02.879Z,1.60
2018-07-04T14:55:43.476Z,2.58
2018-07-04T14:58:17.316Z,2.58
2018-07-04T15:00:57.082Z,1.77
2018-07-04T15:03:37.069Z,4.17
2018-07-04T15:06:17.016Z,1.62
2018-07-04T15:08:57.099Z,2.95
2018-07-04T15:11:36.787Z,1.40
2018-07-04T15:14:16.746Z,2.85
2018-07-04T15:16:56.624Z,1.42
2018-07-04T15:19:30.444Z,1.55
2018-07-04T15:22:04.219Z,2.55
2018-07-04T15:24:45.118Z,2.33
2018-07-04T15:27:18.989Z,3.12
2018-07-04T15:29:58.815Z,2.55
2018-07-04T15:32:38.700Z,3.85
2018-07-04T15:35:18.771Z,2.35
2018-07-04T15:37:58.621Z,2.52
2018-07-04T15:40:39.094Z,3.33
2018-07-04T15:43:19.162Z,1.62
2018-07-04T15:45:58.980Z,5.00
2018-07-04T15:48:32.843Z,1.60
2018-07-04T15:51:13.410Z,3.65
2018-07-04T15:53:53.411Z,1.40
2018-07-04T15:56:34.059Z,1.77
2018-07-04T15:59:14.509Z,3.10
2018-07-04T16:01:48.460Z,1.65
2018-07-04T16:04:28.910Z,1.42
2018-07-04T16:07:08.712Z,2.10
2018-07-04T16:09:48.717Z,1.82
2018-07-04T16:12:28.517Z,5.15
2018-07-04T16:15:08.515Z,2.25
2018-07-04T16:17:48.367Z,1.62
2018-07-04T16:20:28.051Z,2.92
2018-07-04T16:23:08.060Z,2.45
2018-07-04T16:25:48.005Z,1.37
2018-07-04T16:28:27.830Z,5.05
2018-07-04T16:31:07.954Z,1.47
2018-07-04T16:33:47.930Z,2.10
2018-07-04T16:36:27.676Z,1.32
2018-07-04T16:39:07.751Z,1.50
2018-07-04T16:41:47.836Z,3.50
2018-07-04T16:44:27.807Z,1.35
2018-07-04T16:47:07.710Z,4.05
2018-07-04T16:49:47.577Z,2.50
2018-07-04T16:52:22.009Z,1.85
2018-07-04T16:55:01.748Z,3.52
2018-07-04T16:57:41.655Z,1.32
2018-07-04T17:00:21.596Z,1.75
2018-07-04T17:02:55.479Z,3.25
2018-07-04T17:05:35.409Z,4.17
2018-07-04T17:08:15.329Z,3.45
2018-07-04T17:10:55.305Z,1.45
2018-07-04T17:13:35.026Z,1.50
2018-07-04T17:16:16.339Z,3.15
2018-07-04T17:18:56.278Z,1.65
2018-07-04T17:21:36.175Z,2.12
2018-07-04T17:24:10.815Z,2.42
2018-07-04T17:26:50.863Z,3.25
2018-07-04T17:29:30.688Z,6.83
2018-07-04T17:32:10.490Z,1.20
2018-07-04T17:34:50.553Z,5.08
2018-07-04T17:37:30.499Z,3.30
2018-07-04T17:40:10.381Z,1.57
2018-07-04T17:42:50.338Z,1.85
2018-07-04T17:45:31.210Z,1.87
2018-07-04T17:48:05.183Z,2.25
2018-07-04T17:50:45.799Z,2.00
2018-07-04T17:53:25.806Z,4.30
2018-07-04T17:56:05.756Z,1.75
2018-07-04T17:58:46.302Z,1.98
2018-07-04T18:01:26.019Z,1.70
2018-07-04T18:04:06.030Z,2.72
2018-07-04T18:06:46.259Z,3.12
2018-07-04T18:09:26.056Z,3.08
2018-07-04T18:12:05.976Z,1.42
2018-07-04T18:14:46.245Z,2.20
2018-07-04T18:17:26.058Z,3.92
2018-07-04T18:20:06.067Z,3.52
2018-07-04T18:22:46.344Z,3.72
2018-07-04T18:25:26.305Z,2.55
2018-07-04T18:28:06.421Z,3.15
2018-07-04T18:30:46.879Z,5.03
2018-07-04T18:33:20.539Z,2.50
2018-07-04T18:36:00.329Z,3.10
2018-07-04T18:38:34.254Z,3.45
2018-07-04T18:41:14.196Z,4.80
2018-07-04T18:43:53.984Z,3.50
2018-07-04T18:46:33.955Z,8.23
2018-07-04T18:49:15.051Z,3.25
2018-07-04T18:51:48.928Z,5.17
2018-07-04T18:54:28.880Z,6.80
2018-07-04T18:57:08.803Z,5.57
2018-07-04T18:59:48.576Z,6.22
2018-07-04T19:02:28.488Z,4.93
2018-07-04T19:05:08.411Z,3.57
2018-07-04T19:07:42.267Z,2.20
2018-07-04T19:10:22.152Z,3.50
2018-07-04T19:13:02.063Z,1.83
2018-07-04T19:15:42.139Z,2.10
2018-07-04T19:18:23.144Z,5.50
2018-07-04T19:21:03.107Z,3.17
2018-07-04T19:23:43.062Z,3.77
2018-07-04T19:26:22.905Z,5.03
2018-07-04T19:29:02.853Z,4.43
2018-07-04T19:31:42.711Z,8.73
2018-07-04T19:34:22.482Z,3.80
2018-07-04T19:37:02.398Z,4.47
2018-07-04T19:39:42.240Z,2.67
2018-07-04T19:42:22.332Z,4.57
2018-07-04T19:45:01.983Z,3.93
2018-07-04T19:47:42.115Z,2.87
2018-07-04T19:50:22.047Z,4.97
2018-07-04T19:53:01.871Z,3.43
2018-07-04T19:55:35.786Z,3.70
2018-07-04T19:58:15.612Z,4.57
2018-07-04T20:00:55.632Z,4.17
2018-07-04T20:03:35.475Z,3.43
2018-07-04T20:06:15.378Z,2.83
2018-07-04T20:08:55.313Z,2.30
2018-07-04T20:11:29.101Z,2.97
2018-07-04T20:14:08.910Z,2.57
2018-07-04T20:16:49.346Z,2.90
2018-07-04T20:19:29.344Z,2.27
2018-07-04T20:22:09.223Z,4.67
2018-07-04T20:24:43.375Z,5.67
2018-07-04T20:27:23.393Z,4.43
2018-07-04T20:30:03.526Z,5.33
2018-07-04T20:32:43.534Z,4.67
2018-07-04T20:35:23.509Z,4.37
2018-07-04T20:38:03.351Z,3.63
2018-07-04T20:40:43.316Z,3.20
2018-07-04T20:43:23.217Z,3.97
2018-07-04T20:46:03.143Z,3.47
2018-07-04T20:48:37.116Z,6.00
2018-07-04T20:51:17.071Z,7.60
2018-07-04T20:53:56.932Z,4.03
2018-07-04T20:56:37.067Z,5.73
2018-07-04T20:59:17.111Z,3.93
2018-07-04T21:01:56.897Z,4.27
2018-07-04T21:04:30.873Z,4.63
2018-07-04T21:07:10.619Z,4.67
2018-07-04T21:09:50.550Z,5.33
2018-07-04T21:12:30.236Z,8.20
2018-07-04T21:15:10.387Z,8.37
2018-07-04T21:17:50.234Z,5.80
2018-07-04T21:20:30.105Z,5.93
2018-07-04T21:23:04.041Z,4.83
2018-07-04T21:25:43.895Z,7.33
2018-07-04T21:28:23.869Z,9.97
2018-07-04T21:31:03.748Z,8.80
2018-07-04T21:33:43.701Z,9.87
2018-07-04T21:36:17.686Z,8.00
2018-07-04T21:38:57.596Z,11.57
2018-07-04T21:41:37.517Z,9.47
2018-07-04T21:44:11.356Z,5.33
2018-07-04T21:46:51.306Z,9.73
2018-07-04T21:49:31.112Z,11.53
2018-07-04T21:52:04.912Z,7.00
2018-07-04T21:54:44.825Z,11.77
2018-07-04T21:57:24.664Z,8.60
2018-07-04T22:00:04.512Z,6.90
2018-07-04T22:02:44.403Z,5.70
2018-07-04T22:05:18.329Z,5.60
2018-07-04T22:07:58.390Z,7.00
2018-07-04T22:10:38.165Z,4.90
2018-07-04T22:13:18.197Z,4.90
2018-07-04T22:15:58.115Z,7.63
2018-07-04T22:18:32.038Z,4.97
2018-07-04T22:21:12.080Z,6.47
2018-07-04T22:23:45.930Z,6.23
2018-07-04T22:26:25.828Z,4.63
2018-07-04T22:29:05.779Z,5.30
2018-07-04T22:31:39.703Z,4.97
2018-07-04T22:34:19.472Z,5.20
2018-07-04T22:36:59.486Z,5.20
2018-07-04T22:39:33.435Z,5.20
2018-07-04T22:42:13.357Z,6.47
2018-07-04T22:44:47.261Z,6.63
2018-07-04T22:47:21.118Z,6.60
2018-07-04T22:50:00.799Z,7.27
2018-07-04T22:52:40.854Z,5.23
2018-07-04T22:55:20.735Z,4.87
2018-07-04T22:58:00.726Z,5.40
2018-07-04T23:00:40.735Z,5.00
2018-07-04T23:03:20.512Z,9.17
2018-07-04T23:06:00.595Z,5.37
2018-07-04T23:08:40.461Z,5.63
2018-07-04T23:11:20.402Z,5.43
2018-07-04T23:13:54.284Z,5.57
2018-07-04T23:16:34.100Z,5.47
2018-07-04T23:19:14.004Z,5.60
2018-07-04T23:21:47.719Z,5.90
2018-07-04T23:24:27.419Z,7.60
2018-07-04T23:27:07.400Z,6.50
2018-07-04T23:29:41.268Z,6.70
2018-07-04T23:32:21.003Z,5.83
2018-07-04T23:35:00.926Z,6.87
2018-07-04T23:37:40.794Z,6.90
2018-07-04T23:40:20.683Z,6.70
2018-07-04T23:43:00.561Z,7.13
2018-07-04T23:45:40.516Z,6.00
2018-07-04T23:48:20.383Z,6.27
2018-07-04T23:51:00.331Z,6.10
2018-07-04T23:53:40.342Z,7.10
2018-07-04T23:56:14.350Z,6.63
2018-07-04T23:58:54.210Z,7.20
